sensor_id;sensor_type;location;lat;lon;timestamp;P1;durP1;ratioP1;P2;durP2;ratioP2
48205;SDS011;33995;48.202;16.260;2023-05-27T00:02:06;7.80;;;4.90;;
48205;SDS011;33995;48.202;16.260;2023-05-27T00:04:37;7.47;;;4.73;;
48205;SDS011;33995;48.202;16.260;2023-05-27T00:07:09;6.93;;;4.60;;
48205;SDS011;33995;48.202;16.260;2023-05-27T00:09:41;5.47;;;4.13;;
48205;SDS011;33995;48.202;16.260;2023-05-27T00:12:10;8.30;;;4.40;;
48205;SDS011;33995;48.202;16.260;2023-05-27T00:14:43;7.40;;;4.17;;
48205;SDS011;33995;48.202;16.260;2023-05-27T00:17:15;7.77;;;4.43;;
48205;SDS011;33995;48.202;16.260;2023-05-27T00:19:47;7.97;;;5.00;;
48205;SDS011;33995;48.202;16.260;2023-05-27T00:22:19;8.47;;;5.27;;
48205;SDS011;33995;48.202;16.260;2023-05-27T00:24:54;6.63;;;5.10;;
48205;SDS011;33995;48.202;16.260;2023-05-27T00:27:25;7.07;;;5.33;;
48205;SDS011;33995;48.202;16.260;2023-05-27T00:29:55;9.13;;;5.03;;
48205;SDS011;33995;48.202;16.260;2023-05-27T00:32:24;8.27;;;5.00;;
48205;SDS011;33995;48.202;16.260;2023-05-27T00:34:54;6.47;;;4.67;;
48205;SDS011;33995;48.202;16.260;2023-05-27T00:37:22;10.73;;;5.23;;
48205;SDS011;33995;48.202;16.260;2023-05-27T00:39:52;6.80;;;5.10;;
48205;SDS011;33995;48.202;16.260;2023-05-27T00:42:24;10.63;;;5.50;;
48205;SDS011;33995;48.202;16.260;2023-05-27T00:44:58;9.00;;;5.50;;
48205;SDS011;33995;48.202;16.260;2023-05-27T00:47:26;7.53;;;4.83;;
48205;SDS011;33995;48.202;16.260;2023-05-27T00:49:57;7.20;;;4.83;;
48205;SDS011;33995;48.202;16.260;2023-05-27T00:52:32;7.00;;;4.87;;
48205;SDS011;33995;48.202;16.260;2023-05-27T00:55:03;8.60;;;5.10;;
48205;SDS011;33995;48.202;16.260;2023-05-27T00:57:36;8.00;;;4.83;;
48205;SDS011;33995;48.202;16.260;2023-05-27T01:00:07;7.10;;;4.90;;
48205;SDS011;33995;48.202;16.260;2023-05-27T01:02:39;7.37;;;5.07;;
48205;SDS011;33995;48.202;16.260;2023-05-27T01:05:14;5.93;;;4.90;;
48205;SDS011;33995;48.202;16.260;2023-05-27T01:10:52;6.73;;;4.70;;
48205;SDS011;33995;48.202;16.260;2023-05-27T01:13:39;7.17;;;4.97;;
48205;SDS011;33995;48.202;16.260;2023-05-27T01:16:18;8.50;;;5.23;;
48205;SDS011;33995;48.202;16.260;2023-05-27T01:18:52;7.07;;;5.07;;
48205;SDS011;33995;48.202;16.260;2023-05-27T01:21:30;5.67;;;4.80;;
48205;SDS011;33995;48.202;16.260;2023-05-27T01:24:05;7.50;;;5.17;;
48205;SDS011;33995;48.202;16.260;2023-05-27T01:26:37;7.07;;;5.17;;
48205;SDS011;33995;48.202;16.260;2023-05-27T01:29:08;6.87;;;5.17;;
48205;SDS011;33995;48.202;16.260;2023-05-27T01:34:44;7.33;;;5.33;;
48205;SDS011;33995;48.202;16.260;2023-05-27T01:37:47;10.13;;;5.57;;
48205;SDS011;33995;48.202;16.260;2023-05-27T01:40:20;7.40;;;5.60;;
48205;SDS011;33995;48.202;16.260;2023-05-27T01:42:51;7.97;;;5.67;;
48205;SDS011;33995;48.202;16.260;2023-05-27T01:45:24;7.57;;;5.10;;
48205;SDS011;33995;48.202;16.260;2023-05-27T01:47:54;6.53;;;5.23;;
48205;SDS011;33995;48.202;16.260;2023-05-27T01:50:24;6.93;;;5.37;;
48205;SDS011;33995;48.202;16.260;2023-05-27T01:52:53;7.70;;;5.30;;
48205;SDS011;33995;48.202;16.260;2023-05-27T01:55:23;10.17;;;5.73;;
48205;SDS011;33995;48.202;16.260;2023-05-27T01:57:54;7.43;;;5.30;;
48205;SDS011;33995;48.202;16.260;2023-05-27T02:00:32;7.40;;;5.23;;
48205;SDS011;33995;48.202;16.260;2023-05-27T02:03:06;8.37;;;5.50;;
48205;SDS011;33995;48.202;16.260;2023-05-27T02:05:37;9.37;;;5.40;;
48205;SDS011;33995;48.202;16.260;2023-05-27T02:08:12;6.27;;;5.17;;
48205;SDS011;33995;48.202;16.260;2023-05-27T02:10:41;8.07;;;5.67;;
48205;SDS011;33995;48.202;16.260;2023-05-27T02:13:12;9.33;;;5.30;;
48205;SDS011;33995;48.202;16.260;2023-05-27T02:15:46;9.67;;;5.37;;
48205;SDS011;33995;48.202;16.260;2023-05-27T02:18:20;7.23;;;5.67;;
48205;SDS011;33995;48.202;16.260;2023-05-27T02:20:49;8.50;;;5.67;;
48205;SDS011;33995;48.202;16.260;2023-05-27T02:23:20;8.07;;;5.50;;
48205;SDS011;33995;48.202;16.260;2023-05-27T02:25:52;8.17;;;5.73;;
48205;SDS011;33995;48.202;16.260;2023-05-27T02:28:22;11.10;;;6.30;;
48205;SDS011;33995;48.202;16.260;2023-05-27T02:30:54;7.97;;;5.47;;
48205;SDS011;33995;48.202;16.260;2023-05-27T02:33:24;8.80;;;5.30;;
48205;SDS011;33995;48.202;16.260;2023-05-27T02:35:54;8.97;;;6.00;;
48205;SDS011;33995;48.202;16.260;2023-05-27T02:38:28;8.53;;;5.60;;
48205;SDS011;33995;48.202;16.260;2023-05-27T02:40:56;9.67;;;5.37;;
48205;SDS011;33995;48.202;16.260;2023-05-27T02:43:25;6.73;;;5.50;;
48205;SDS011;33995;48.202;16.260;2023-05-27T02:45:56;7.03;;;5.17;;
48205;SDS011;33995;48.202;16.260;2023-05-27T02:48:40;7.43;;;5.27;;
48205;SDS011;33995;48.202;16.260;2023-05-27T02:51:11;6.60;;;4.93;;
48205;SDS011;33995;48.202;16.260;2023-05-27T02:53:40;10.27;;;6.00;;
48205;SDS011;33995;48.202;16.260;2023-05-27T02:56:17;10.40;;;5.97;;
48205;SDS011;33995;48.202;16.260;2023-05-27T02:58:48;9.23;;;5.47;;
48205;SDS011;33995;48.202;16.260;2023-05-27T03:01:17;7.77;;;5.23;;
48205;SDS011;33995;48.202;16.260;2023-05-27T03:03:50;7.30;;;5.53;;
48205;SDS011;33995;48.202;16.260;2023-05-27T03:06:22;8.10;;;5.50;;
48205;SDS011;33995;48.202;16.260;2023-05-27T03:08:50;7.70;;;5.57;;
48205;SDS011;33995;48.202;16.260;2023-05-27T03:11:21;9.37;;;5.80;;
48205;SDS011;33995;48.202;16.260;2023-05-27T03:13:56;6.57;;;5.10;;
48205;SDS011;33995;48.202;16.260;2023-05-27T03:16:26;7.80;;;5.60;;
48205;SDS011;33995;48.202;16.260;2023-05-27T03:18:58;6.83;;;5.40;;
48205;SDS011;33995;48.202;16.260;2023-05-27T03:21:26;7.70;;;5.40;;
48205;SDS011;33995;48.202;16.260;2023-05-27T03:23:57;12.87;;;10.17;;
48205;SDS011;33995;48.202;16.260;2023-05-27T03:26:28;7.50;;;5.80;;
48205;SDS011;33995;48.202;16.260;2023-05-27T03:29:05;9.40;;;7.33;;
48205;SDS011;33995;48.202;16.260;2023-05-27T03:31:37;11.30;;;7.43;;
48205;SDS011;33995;48.202;16.260;2023-05-27T03:34:13;10.67;;;6.97;;
48205;SDS011;33995;48.202;16.260;2023-05-27T03:36:43;11.17;;;7.90;;
48205;SDS011;33995;48.202;16.260;2023-05-27T03:39:16;11.90;;;7.57;;
48205;SDS011;33995;48.202;16.260;2023-05-27T03:41:54;8.67;;;5.70;;
48205;SDS011;33995;48.202;16.260;2023-05-27T03:44:36;8.33;;;5.33;;
48205;SDS011;33995;48.202;16.260;2023-05-27T03:47:12;8.63;;;5.30;;
48205;SDS011;33995;48.202;16.260;2023-05-27T03:49:44;7.43;;;4.97;;
48205;SDS011;33995;48.202;16.260;2023-05-27T03:52:14;6.77;;;5.20;;
48205;SDS011;33995;48.202;16.260;2023-05-27T03:54:49;8.03;;;5.10;;
48205;SDS011;33995;48.202;16.260;2023-05-27T03:57:19;7.40;;;5.03;;
48205;SDS011;33995;48.202;16.260;2023-05-27T03:59:48;8.80;;;5.43;;
48205;SDS011;33995;48.202;16.260;2023-05-27T04:02:20;7.70;;;5.40;;
48205;SDS011;33995;48.202;16.260;2023-05-27T04:04:51;6.83;;;5.10;;
48205;SDS011;33995;48.202;16.260;2023-05-27T04:07:27;7.43;;;5.03;;
48205;SDS011;33995;48.202;16.260;2023-05-27T04:09:58;10.10;;;5.50;;
48205;SDS011;33995;48.202;16.260;2023-05-27T04:12:33;8.77;;;5.03;;
48205;SDS011;33995;48.202;16.260;2023-05-27T04:15:01;7.90;;;5.30;;
48205;SDS011;33995;48.202;16.260;2023-05-27T04:17:32;9.67;;;4.93;;
48205;SDS011;33995;48.202;16.260;2023-05-27T04:20:04;7.73;;;4.93;;
48205;SDS011;33995;48.202;16.260;2023-05-27T04:22:46;6.67;;;4.53;;
48205;SDS011;33995;48.202;16.260;2023-05-27T04:25:17;6.60;;;4.47;;
48205;SDS011;33995;48.202;16.260;2023-05-27T04:28:01;7.53;;;4.50;;
48205;SDS011;33995;48.202;16.260;2023-05-27T04:30:38;11.97;;;4.50;;
48205;SDS011;33995;48.202;16.260;2023-05-27T04:33:27;7.20;;;4.27;;
48205;SDS011;33995;48.202;16.260;2023-05-27T04:35:59;9.50;;;4.40;;
48205;SDS011;33995;48.202;16.260;2023-05-27T04:38:37;9.07;;;4.10;;
48205;SDS011;33995;48.202;16.260;2023-05-27T04:41:09;7.50;;;4.10;;
48205;SDS011;33995;48.202;16.260;2023-05-27T04:44:05;9.33;;;4.40;;
48205;SDS011;33995;48.202;16.260;2023-05-27T04:46:48;8.37;;;4.27;;
48205;SDS011;33995;48.202;16.260;2023-05-27T04:49:19;8.23;;;4.47;;
48205;SDS011;33995;48.202;16.260;2023-05-27T04:51:48;11.03;;;4.97;;
48205;SDS011;33995;48.202;16.260;2023-05-27T04:54:21;8.30;;;4.40;;
48205;SDS011;33995;48.202;16.260;2023-05-27T04:56:51;10.33;;;4.77;;
48205;SDS011;33995;48.202;16.260;2023-05-27T04:59:30;10.43;;;6.70;;
48205;SDS011;33995;48.202;16.260;2023-05-27T05:02:27;7.37;;;4.10;;
48205;SDS011;33995;48.202;16.260;2023-05-27T05:05:18;9.37;;;4.60;;
48205;SDS011;33995;48.202;16.260;2023-05-27T05:07:45;9.37;;;5.07;;
48205;SDS011;33995;48.202;16.260;2023-05-27T05:10:17;7.97;;;4.33;;
48205;SDS011;33995;48.202;16.260;2023-05-27T05:12:51;8.57;;;4.30;;
48205;SDS011;33995;48.202;16.260;2023-05-27T05:15:22;8.17;;;4.23;;
48205;SDS011;33995;48.202;16.260;2023-05-27T05:18:04;7.43;;;4.23;;
48205;SDS011;33995;48.202;16.260;2023-05-27T05:20:35;9.03;;;4.10;;
48205;SDS011;33995;48.202;16.260;2023-05-27T05:23:09;9.77;;;4.70;;
48205;SDS011;33995;48.202;16.260;2023-05-27T05:25:41;9.53;;;4.17;;
48205;SDS011;33995;48.202;16.260;2023-05-27T05:28:09;9.37;;;3.87;;
48205;SDS011;33995;48.202;16.260;2023-05-27T05:30:38;7.73;;;4.03;;
48205;SDS011;33995;48.202;16.260;2023-05-27T05:33:15;8.07;;;4.30;;
48205;SDS011;33995;48.202;16.260;2023-05-27T05:35:50;8.60;;;4.60;;
48205;SDS011;33995;48.202;16.260;2023-05-27T05:38:26;10.90;;;4.57;;
48205;SDS011;33995;48.202;16.260;2023-05-27T05:40:59;7.77;;;4.13;;
48205;SDS011;33995;48.202;16.260;2023-05-27T05:43:36;8.23;;;4.23;;
48205;SDS011;33995;48.202;16.260;2023-05-27T05:46:08;6.97;;;4.10;;
48205;SDS011;33995;48.202;16.260;2023-05-27T05:48:36;8.23;;;4.40;;
48205;SDS011;33995;48.202;16.260;2023-05-27T05:51:11;8.03;;;4.17;;
48205;SDS011;33995;48.202;16.260;2023-05-27T05:53:44;7.93;;;4.63;;
48205;SDS011;33995;48.202;16.260;2023-05-27T05:56:17;8.00;;;4.17;;
48205;SDS011;33995;48.202;16.260;2023-05-27T05:58:45;7.90;;;4.27;;
48205;SDS011;33995;48.202;16.260;2023-05-27T06:01:15;9.73;;;4.70;;
48205;SDS011;33995;48.202;16.260;2023-05-27T06:03:46;8.30;;;4.50;;
48205;SDS011;33995;48.202;16.260;2023-05-27T06:06:32;8.33;;;3.90;;
48205;SDS011;33995;48.202;16.260;2023-05-27T06:09:30;10.57;;;4.07;;
48205;SDS011;33995;48.202;16.260;2023-05-27T06:12:10;11.13;;;4.23;;
48205;SDS011;33995;48.202;16.260;2023-05-27T06:14:44;10.80;;;4.33;;
48205;SDS011;33995;48.202;16.260;2023-05-27T06:17:26;9.90;;;4.33;;
48205;SDS011;33995;48.202;16.260;2023-05-27T06:19:55;8.10;;;5.30;;
48205;SDS011;33995;48.202;16.260;2023-05-27T06:22:29;8.00;;;4.67;;
48205;SDS011;33995;48.202;16.260;2023-05-27T06:25:26;8.20;;;4.23;;
48205;SDS011;33995;48.202;16.260;2023-05-27T06:28:02;8.97;;;4.60;;
48205;SDS011;33995;48.202;16.260;2023-05-27T06:30:36;10.60;;;4.33;;
48205;SDS011;33995;48.202;16.260;2023-05-27T06:33:11;8.27;;;4.53;;
48205;SDS011;33995;48.202;16.260;2023-05-27T06:35:42;9.57;;;4.27;;
48205;SDS011;33995;48.202;16.260;2023-05-27T06:38:14;8.73;;;4.50;;
48205;SDS011;33995;48.202;16.260;2023-05-27T06:40:48;8.73;;;4.10;;
48205;SDS011;33995;48.202;16.260;2023-05-27T06:43:17;8.10;;;4.17;;
48205;SDS011;33995;48.202;16.260;2023-05-27T06:45:52;7.13;;;4.10;;
48205;SDS011;33995;48.202;16.260;2023-05-27T06:49:02;10.20;;;4.40;;
48205;SDS011;33995;48.202;16.260;2023-05-27T06:51:32;8.87;;;4.07;;
48205;SDS011;33995;48.202;16.260;2023-05-27T06:54:02;9.53;;;4.00;;
48205;SDS011;33995;48.202;16.260;2023-05-27T06:56:40;7.80;;;4.13;;
48205;SDS011;33995;48.202;16.260;2023-05-27T06:59:29;10.00;;;4.60;;
48205;SDS011;33995;48.202;16.260;2023-05-27T07:01:57;9.60;;;4.23;;
48205;SDS011;33995;48.202;16.260;2023-05-27T07:04:34;8.70;;;4.20;;
48205;SDS011;33995;48.202;16.260;2023-05-27T07:07:08;8.07;;;3.93;;
48205;SDS011;33995;48.202;16.260;2023-05-27T07:09:39;8.23;;;3.87;;
48205;SDS011;33995;48.202;16.260;2023-05-27T07:12:08;9.63;;;4.70;;
48205;SDS011;33995;48.202;16.260;2023-05-27T07:14:49;9.57;;;4.40;;
48205;SDS011;33995;48.202;16.260;2023-05-27T07:17:25;7.33;;;3.97;;
48205;SDS011;33995;48.202;16.260;2023-05-27T07:19:55;8.40;;;4.20;;
48205;SDS011;33995;48.202;16.260;2023-05-27T07:22:24;8.67;;;4.37;;
48205;SDS011;33995;48.202;16.260;2023-05-27T07:24:55;9.67;;;4.23;;
48205;SDS011;33995;48.202;16.260;2023-05-27T07:27:28;7.87;;;3.90;;
48205;SDS011;33995;48.202;16.260;2023-05-27T07:30:00;9.57;;;4.20;;
48205;SDS011;33995;48.202;16.260;2023-05-27T07:32:57;7.63;;;4.00;;
48205;SDS011;33995;48.202;16.260;2023-05-27T07:35:33;7.90;;;4.10;;
48205;SDS011;33995;48.202;16.260;2023-05-27T07:38:05;9.63;;;4.13;;
48205;SDS011;33995;48.202;16.260;2023-05-27T07:40:39;7.57;;;4.20;;
48205;SDS011;33995;48.202;16.260;2023-05-27T07:43:11;11.63;;;4.10;;
48205;SDS011;33995;48.202;16.260;2023-05-27T07:45:48;7.60;;;4.07;;
48205;SDS011;33995;48.202;16.260;2023-05-27T07:48:18;7.87;;;4.07;;
48205;SDS011;33995;48.202;16.260;2023-05-27T07:50:48;8.23;;;3.97;;
48205;SDS011;33995;48.202;16.260;2023-05-27T07:53:20;9.43;;;3.93;;
48205;SDS011;33995;48.202;16.260;2023-05-27T07:55:51;7.30;;;3.60;;
48205;SDS011;33995;48.202;16.260;2023-05-27T07:58:26;9.30;;;4.40;;
48205;SDS011;33995;48.202;16.260;2023-05-27T08:01:20;7.40;;;3.83;;
48205;SDS011;33995;48.202;16.260;2023-05-27T08:03:52;11.00;;;4.60;;
48205;SDS011;33995;48.202;16.260;2023-05-27T08:06:52;9.00;;;4.30;;
48205;SDS011;33995;48.202;16.260;2023-05-27T08:09:40;8.17;;;4.30;;
48205;SDS011;33995;48.202;16.260;2023-05-27T08:12:36;8.07;;;3.93;;
48205;SDS011;33995;48.202;16.260;2023-05-27T08:15:29;7.87;;;3.67;;
48205;SDS011;33995;48.202;16.260;2023-05-27T08:18:05;9.30;;;3.97;;
48205;SDS011;33995;48.202;16.260;2023-05-27T08:21:10;7.93;;;4.13;;
48205;SDS011;33995;48.202;16.260;2023-05-27T08:24:01;8.27;;;4.10;;
48205;SDS011;33995;48.202;16.260;2023-05-27T08:27:13;8.03;;;4.30;;
48205;SDS011;33995;48.202;16.260;2023-05-27T08:30:07;11.83;;;4.33;;
48205;SDS011;33995;48.202;16.260;2023-05-27T08:32:56;10.47;;;4.03;;
48205;SDS011;33995;48.202;16.260;2023-05-27T08:35:27;6.67;;;3.57;;
48205;SDS011;33995;48.202;16.260;2023-05-27T08:37:58;8.50;;;3.90;;
48205;SDS011;33995;48.202;16.260;2023-05-27T08:40:36;10.40;;;3.90;;
48205;SDS011;33995;48.202;16.260;2023-05-27T08:43:05;8.50;;;4.10;;
48205;SDS011;33995;48.202;16.260;2023-05-27T08:45:45;7.77;;;3.73;;
48205;SDS011;33995;48.202;16.260;2023-05-27T08:48:17;8.07;;;3.80;;
48205;SDS011;33995;48.202;16.260;2023-05-27T08:50:47;11.00;;;4.30;;
48205;SDS011;33995;48.202;16.260;2023-05-27T08:53:21;7.40;;;3.87;;
48205;SDS011;33995;48.202;16.260;2023-05-27T08:55:51;10.27;;;4.00;;
48205;SDS011;33995;48.202;16.260;2023-05-27T08:58:25;7.00;;;3.83;;
48205;SDS011;33995;48.202;16.260;2023-05-27T09:00:56;8.40;;;4.10;;
48205;SDS011;33995;48.202;16.260;2023-05-27T09:03:26;8.13;;;3.93;;
48205;SDS011;33995;48.202;16.260;2023-05-27T09:05:58;9.00;;;4.00;;
48205;SDS011;33995;48.202;16.260;2023-05-27T09:08:33;8.67;;;3.97;;
48205;SDS011;33995;48.202;16.260;2023-05-27T09:11:25;6.43;;;3.73;;
48205;SDS011;33995;48.202;16.260;2023-05-27T09:14:00;9.37;;;3.90;;
48205;SDS011;33995;48.202;16.260;2023-05-27T09:16:31;8.43;;;3.60;;
48205;SDS011;33995;48.202;16.260;2023-05-27T09:19:03;8.43;;;3.97;;
48205;SDS011;33995;48.202;16.260;2023-05-27T09:21:42;9.10;;;4.20;;
48205;SDS011;33995;48.202;16.260;2023-05-27T09:24:14;7.07;;;4.10;;
48205;SDS011;33995;48.202;16.260;2023-05-27T09:26:45;7.20;;;3.57;;
48205;SDS011;33995;48.202;16.260;2023-05-27T09:29:17;9.17;;;3.90;;
48205;SDS011;33995;48.202;16.260;2023-05-27T09:31:47;9.93;;;3.70;;
48205;SDS011;33995;48.202;16.260;2023-05-27T09:34:21;6.13;;;3.70;;
48205;SDS011;33995;48.202;16.260;2023-05-27T09:36:52;7.07;;;3.97;;
48205;SDS011;33995;48.202;16.260;2023-05-27T09:39:24;8.30;;;4.00;;
48205;SDS011;33995;48.202;16.260;2023-05-27T09:41:55;7.13;;;4.00;;
48205;SDS011;33995;48.202;16.260;2023-05-27T09:44:29;6.33;;;3.70;;
48205;SDS011;33995;48.202;16.260;2023-05-27T09:47:00;8.47;;;4.30;;
48205;SDS011;33995;48.202;16.260;2023-05-27T09:49:33;8.40;;;3.90;;
48205;SDS011;33995;48.202;16.260;2023-05-27T09:52:09;9.23;;;4.30;;
48205;SDS011;33995;48.202;16.260;2023-05-27T09:54:41;7.80;;;3.83;;
48205;SDS011;33995;48.202;16.260;2023-05-27T09:57:14;8.97;;;4.10;;
48205;SDS011;33995;48.202;16.260;2023-05-27T09:59:46;7.33;;;3.67;;
48205;SDS011;33995;48.202;16.260;2023-05-27T10:02:19;8.17;;;3.97;;
48205;SDS011;33995;48.202;16.260;2023-05-27T10:04:50;6.17;;;3.80;;
48205;SDS011;33995;48.202;16.260;2023-05-27T10:07:27;6.80;;;3.77;;
48205;SDS011;33995;48.202;16.260;2023-05-27T10:10:06;7.37;;;3.90;;
48205;SDS011;33995;48.202;16.260;2023-05-27T10:12:38;6.77;;;3.90;;
48205;SDS011;33995;48.202;16.260;2023-05-27T10:15:07;12.57;;;3.80;;
48205;SDS011;33995;48.202;16.260;2023-05-27T10:17:46;9.80;;;4.30;;
48205;SDS011;33995;48.202;16.260;2023-05-27T10:20:48;9.57;;;3.60;;
48205;SDS011;33995;48.202;16.260;2023-05-27T10:26:08;7.80;;;3.80;;
48205;SDS011;33995;48.202;16.260;2023-05-27T10:28:41;8.27;;;3.77;;
48205;SDS011;33995;48.202;16.260;2023-05-27T10:31:17;8.47;;;4.03;;
48205;SDS011;33995;48.202;16.260;2023-05-27T10:33:49;6.30;;;3.90;;
48205;SDS011;33995;48.202;16.260;2023-05-27T10:36:23;6.13;;;3.90;;
48205;SDS011;33995;48.202;16.260;2023-05-27T10:39:20;8.17;;;4.00;;
48205;SDS011;33995;48.202;16.260;2023-05-27T10:44:38;7.80;;;4.00;;
48205;SDS011;33995;48.202;16.260;2023-05-27T10:49:59;6.37;;;3.60;;
48205;SDS011;33995;48.202;16.260;2023-05-27T10:52:41;6.87;;;3.70;;
48205;SDS011;33995;48.202;16.260;2023-05-27T10:55:13;6.33;;;3.60;;
48205;SDS011;33995;48.202;16.260;2023-05-27T10:57:41;9.50;;;3.90;;
48205;SDS011;33995;48.202;16.260;2023-05-27T11:00:14;7.83;;;3.90;;
48205;SDS011;33995;48.202;16.260;2023-05-27T11:02:52;9.13;;;3.87;;
48205;SDS011;33995;48.202;16.260;2023-05-27T11:05:27;9.77;;;4.43;;
48205;SDS011;33995;48.202;16.260;2023-05-27T11:08:02;8.53;;;3.83;;
48205;SDS011;33995;48.202;16.260;2023-05-27T11:10:42;8.03;;;4.07;;
48205;SDS011;33995;48.202;16.260;2023-05-27T11:13:12;6.83;;;3.60;;
48205;SDS011;33995;48.202;16.260;2023-05-27T11:15:45;7.73;;;4.00;;
48205;SDS011;33995;48.202;16.260;2023-05-27T11:18:12;6.30;;;4.17;;
48205;SDS011;33995;48.202;16.260;2023-05-27T11:20:47;7.30;;;3.93;;
48205;SDS011;33995;48.202;16.260;2023-05-27T11:23:18;9.23;;;4.43;;
48205;SDS011;33995;48.202;16.260;2023-05-27T11:25:52;8.93;;;3.97;;
48205;SDS011;33995;48.202;16.260;2023-05-27T11:28:19;9.20;;;4.23;;
48205;SDS011;33995;48.202;16.260;2023-05-27T11:30:50;9.17;;;4.20;;
48205;SDS011;33995;48.202;16.260;2023-05-27T11:33:32;6.93;;;3.93;;
48205;SDS011;33995;48.202;16.260;2023-05-27T11:36:07;9.97;;;4.63;;
48205;SDS011;33995;48.202;16.260;2023-05-27T11:38:58;8.67;;;4.20;;
48205;SDS011;33995;48.202;16.260;2023-05-27T11:41:29;7.67;;;4.00;;
48205;SDS011;33995;48.202;16.260;2023-05-27T11:44:07;9.17;;;4.10;;
48205;SDS011;33995;48.202;16.260;2023-05-27T11:46:44;9.07;;;4.07;;
48205;SDS011;33995;48.202;16.260;2023-05-27T11:49:16;8.60;;;4.30;;
48205;SDS011;33995;48.202;16.260;2023-05-27T11:51:47;7.10;;;4.10;;
48205;SDS011;33995;48.202;16.260;2023-05-27T11:54:19;7.37;;;3.93;;
48205;SDS011;33995;48.202;16.260;2023-05-27T11:56:50;8.20;;;4.17;;
48205;SDS011;33995;48.202;16.260;2023-05-27T11:59:21;7.80;;;4.30;;
48205;SDS011;33995;48.202;16.260;2023-05-27T12:01:52;7.43;;;4.03;;
48205;SDS011;33995;48.202;16.260;2023-05-27T12:04:24;8.17;;;3.90;;
48205;SDS011;33995;48.202;16.260;2023-05-27T12:06:54;8.23;;;4.30;;
48205;SDS011;33995;48.202;16.260;2023-05-27T12:09:28;7.57;;;4.00;;
48205;SDS011;33995;48.202;16.260;2023-05-27T12:11:58;8.33;;;4.00;;
48205;SDS011;33995;48.202;16.260;2023-05-27T12:14:29;8.90;;;4.40;;
48205;SDS011;33995;48.202;16.260;2023-05-27T12:17:00;6.90;;;4.10;;
48205;SDS011;33995;48.202;16.260;2023-05-27T12:19:32;6.83;;;4.10;;
48205;SDS011;33995;48.202;16.260;2023-05-27T12:22:01;6.97;;;3.97;;
48205;SDS011;33995;48.202;16.260;2023-05-27T12:24:32;8.00;;;4.30;;
48205;SDS011;33995;48.202;16.260;2023-05-27T12:27:04;7.17;;;4.20;;
48205;SDS011;33995;48.202;16.260;2023-05-27T12:29:33;7.23;;;3.93;;
48205;SDS011;33995;48.202;16.260;2023-05-27T12:32:06;8.80;;;4.33;;
48205;SDS011;33995;48.202;16.260;2023-05-27T12:34:37;10.00;;;4.47;;
48205;SDS011;33995;48.202;16.260;2023-05-27T12:37:09;6.73;;;4.40;;
48205;SDS011;33995;48.202;16.260;2023-05-27T12:39:40;8.17;;;3.90;;
48205;SDS011;33995;48.202;16.260;2023-05-27T12:42:12;7.90;;;4.33;;
48205;SDS011;33995;48.202;16.260;2023-05-27T12:44:41;7.30;;;4.10;;
48205;SDS011;33995;48.202;16.260;2023-05-27T12:47:13;7.40;;;3.87;;
48205;SDS011;33995;48.202;16.260;2023-05-27T12:49:43;7.10;;;3.83;;
48205;SDS011;33995;48.202;16.260;2023-05-27T12:52:15;6.97;;;3.80;;
48205;SDS011;33995;48.202;16.260;2023-05-27T12:54:45;7.57;;;3.93;;
48205;SDS011;33995;48.202;16.260;2023-05-27T12:57:16;6.20;;;4.20;;
48205;SDS011;33995;48.202;16.260;2023-05-27T12:59:48;7.40;;;4.03;;
48205;SDS011;33995;48.202;16.260;2023-05-27T13:02:20;7.03;;;3.90;;
48205;SDS011;33995;48.202;16.260;2023-05-27T13:04:47;6.43;;;4.20;;
48205;SDS011;33995;48.202;16.260;2023-05-27T13:07:18;12.80;;;4.10;;
48205;SDS011;33995;48.202;16.260;2023-05-27T13:09:49;6.30;;;3.93;;
48205;SDS011;33995;48.202;16.260;2023-05-27T13:12:21;5.47;;;3.50;;
48205;SDS011;33995;48.202;16.260;2023-05-27T13:14:51;6.30;;;3.80;;
48205;SDS011;33995;48.202;16.260;2023-05-27T13:17:21;6.47;;;3.93;;
48205;SDS011;33995;48.202;16.260;2023-05-27T13:19:52;7.60;;;4.00;;
48205;SDS011;33995;48.202;16.260;2023-05-27T13:22:21;6.13;;;3.97;;
48205;SDS011;33995;48.202;16.260;2023-05-27T13:24:51;7.03;;;3.70;;
48205;SDS011;33995;48.202;16.260;2023-05-27T13:27:19;7.60;;;3.97;;
48205;SDS011;33995;48.202;16.260;2023-05-27T13:29:47;5.87;;;3.90;;
48205;SDS011;33995;48.202;16.260;2023-05-27T13:32:23;8.33;;;4.30;;
48205;SDS011;33995;48.202;16.260;2023-05-27T13:34:56;6.90;;;3.90;;
48205;SDS011;33995;48.202;16.260;2023-05-27T13:37:25;7.57;;;3.43;;
48205;SDS011;33995;48.202;16.260;2023-05-27T13:39:54;8.07;;;4.17;;
48205;SDS011;33995;48.202;16.260;2023-05-27T13:42:28;5.93;;;3.60;;
48205;SDS011;33995;48.202;16.260;2023-05-27T13:44:58;5.63;;;3.80;;
48205;SDS011;33995;48.202;16.260;2023-05-27T13:47:29;6.17;;;3.90;;
48205;SDS011;33995;48.202;16.260;2023-05-27T13:50:01;9.07;;;4.20;;
48205;SDS011;33995;48.202;16.260;2023-05-27T13:52:31;6.47;;;3.80;;
48205;SDS011;33995;48.202;16.260;2023-05-27T13:54:58;6.67;;;3.77;;
48205;SDS011;33995;48.202;16.260;2023-05-27T13:57:26;6.00;;;3.90;;
48205;SDS011;33995;48.202;16.260;2023-05-27T13:59:54;5.97;;;3.57;;
48205;SDS011;33995;48.202;16.260;2023-05-27T14:02:30;5.93;;;4.07;;
48205;SDS011;33995;48.202;16.260;2023-05-27T14:05:02;7.13;;;4.13;;
48205;SDS011;33995;48.202;16.260;2023-05-27T14:07:40;5.70;;;3.90;;
48205;SDS011;33995;48.202;16.260;2023-05-27T14:10:11;6.67;;;3.97;;
48205;SDS011;33995;48.202;16.260;2023-05-27T14:12:41;7.37;;;3.67;;
48205;SDS011;33995;48.202;16.260;2023-05-27T14:15:10;6.70;;;4.10;;
48205;SDS011;33995;48.202;16.260;2023-05-27T14:17:40;7.00;;;4.00;;
48205;SDS011;33995;48.202;16.260;2023-05-27T14:20:08;6.83;;;4.17;;
48205;SDS011;33995;48.202;16.260;2023-05-27T14:22:41;6.50;;;3.83;;
48205;SDS011;33995;48.202;16.260;2023-05-27T14:25:11;7.33;;;4.10;;
48205;SDS011;33995;48.202;16.260;2023-05-27T14:27:42;6.43;;;3.77;;
48205;SDS011;33995;48.202;16.260;2023-05-27T14:30:13;8.33;;;4.10;;
48205;SDS011;33995;48.202;16.260;2023-05-27T14:32:50;7.53;;;4.10;;
48205;SDS011;33995;48.202;16.260;2023-05-27T14:35:19;7.37;;;3.90;;
48205;SDS011;33995;48.202;16.260;2023-05-27T14:37:49;8.60;;;4.23;;
48205;SDS011;33995;48.202;16.260;2023-05-27T14:40:22;6.50;;;3.93;;
48205;SDS011;33995;48.202;16.260;2023-05-27T14:42:49;6.87;;;3.90;;
48205;SDS011;33995;48.202;16.260;2023-05-27T14:45:25;6.53;;;4.47;;
48205;SDS011;33995;48.202;16.260;2023-05-27T14:47:56;5.67;;;3.93;;
48205;SDS011;33995;48.202;16.260;2023-05-27T14:50:25;8.23;;;4.23;;
48205;SDS011;33995;48.202;16.260;2023-05-27T14:52:53;6.50;;;4.07;;
48205;SDS011;33995;48.202;16.260;2023-05-27T14:55:29;6.70;;;3.50;;
48205;SDS011;33995;48.202;16.260;2023-05-27T14:58:01;8.33;;;3.97;;
48205;SDS011;33995;48.202;16.260;2023-05-27T15:00:35;7.70;;;4.20;;
48205;SDS011;33995;48.202;16.260;2023-05-27T15:03:05;6.57;;;3.87;;
48205;SDS011;33995;48.202;16.260;2023-05-27T15:05:36;6.07;;;4.00;;
48205;SDS011;33995;48.202;16.260;2023-05-27T15:08:06;5.73;;;3.93;;
48205;SDS011;33995;48.202;16.260;2023-05-27T15:10:39;7.03;;;4.00;;
48205;SDS011;33995;48.202;16.260;2023-05-27T15:13:09;6.47;;;3.97;;
48205;SDS011;33995;48.202;16.260;2023-05-27T15:15:44;8.90;;;4.33;;
48205;SDS011;33995;48.202;16.260;2023-05-27T15:18:15;6.97;;;3.83;;
48205;SDS011;33995;48.202;16.260;2023-05-27T15:20:46;6.77;;;3.90;;
48205;SDS011;33995;48.202;16.260;2023-05-27T15:23:18;7.10;;;4.17;;
48205;SDS011;33995;48.202;16.260;2023-05-27T15:25:52;5.10;;;3.67;;
48205;SDS011;33995;48.202;16.260;2023-05-27T15:28:21;9.07;;;4.10;;